Aviation Digital Data Service (ADDS)

Output produced by METARs form (0608 UTC 19 March 2019)
found at http://www.aviationweather.gov/metar/data/
 
METAR text: WBKS 190600Z 01008KT 320V050 9999 FEW017 BKN300 31/25 Q1009
Conditions at: WBKS (SANDAKAN/KALIMAN, MY) observed 0600 UTC 19 March 2019
Temperature: 31.0°C (88°F)
Dewpoint: 25.0°C (77°F) [RH = 71%]
Pressure (altimeter): 29.79 inches Hg (1009.0 mb)
Winds: from the N (10 degrees) at 9 MPH (8 knots; 4.1 m/s)
Visibility: 6 or more miles (10+ km)
Ceiling: 30000 feet AGL
Clouds: few clouds at 1700 feet AGL
broken clouds at 30000 feet AGL
Weather: no significant weather observed at this time

METAR text: WBKS 190500Z 01009KT 330V070 9999 FEW017 BKN300 31/25 Q1010
Conditions at: WBKS (SANDAKAN/KALIMAN, MY) observed 0500 UTC 19 March 2019
Temperature: 31.0°C (88°F)
Dewpoint: 25.0°C (77°F) [RH = 71%]
Pressure (altimeter): 29.82 inches Hg (1010.0 mb)
Winds: from the N (10 degrees) at 10 MPH (9 knots; 4.6 m/s)
Visibility: 6 or more miles (10+ km)
Ceiling: 30000 feet AGL
Clouds: few clouds at 1700 feet AGL
broken clouds at 30000 feet AGL
Weather: no significant weather observed at this time

METAR text: WBKS 190400Z 02010KT 340V060 9999 SCT017 SCT140 BKN300 31/25 Q1011
Conditions at: WBKS (SANDAKAN/KALIMAN, MY) observed 0400 UTC 19 March 2019
Temperature: 31.0°C (88°F)
Dewpoint: 25.0°C (77°F) [RH = 71%]
Pressure (altimeter): 29.85 inches Hg (1011.0 mb)
Winds: from the NNE (20 degrees) at 12 MPH (10 knots; 5.1 m/s)
Visibility: 6 or more miles (10+ km)
Ceiling: 30000 feet AGL
Clouds: scattered clouds at 1700 feet AGL
scattered clouds at 14000 feet AGL
broken clouds at 30000 feet AGL
Weather: no significant weather observed at this time

METAR text: WBKS 190300Z 01008KT 340V060 9999 SCT017 BKN300 31/25 Q1012
Conditions at: WBKS (SANDAKAN/KALIMAN, MY) observed 0300 UTC 19 March 2019
Temperature: 31.0°C (88°F)
Dewpoint: 25.0°C (77°F) [RH = 71%]
Pressure (altimeter): 29.88 inches Hg (1012.0 mb)
Winds: from the N (10 degrees) at 9 MPH (8 knots; 4.1 m/s)
Visibility: 6 or more miles (10+ km)
Ceiling: 30000 feet AGL
Clouds: scattered clouds at 1700 feet AGL
broken clouds at 30000 feet AGL
Weather: no significant weather observed at this time

METAR text: WBKS 190200Z 02006KT 350V050 9999 SCT017 BKN300 30/24 Q1012
Conditions at: WBKS (SANDAKAN/KALIMAN, MY) observed 0200 UTC 19 March 2019
Temperature: 30.0°C (86°F)
Dewpoint: 24.0°C (75°F) [RH = 70%]
Pressure (altimeter): 29.88 inches Hg (1012.0 mb)
Winds: from the NNE (20 degrees) at 7 MPH (6 knots; 3.1 m/s)
Visibility: 6 or more miles (10+ km)
Ceiling: 30000 feet AGL
Clouds: scattered clouds at 1700 feet AGL
broken clouds at 30000 feet AGL
Weather: no significant weather observed at this time

METAR text: WBKS 190100Z 36005KT 300V060 9999 SCT017 BKN300 30/24 Q1012
Conditions at: WBKS (SANDAKAN/KALIMAN, MY) observed 0100 UTC 19 March 2019
Temperature: 30.0°C (86°F)
Dewpoint: 24.0°C (75°F) [RH = 70%]
Pressure (altimeter): 29.88 inches Hg (1012.0 mb)
Winds: from the N (360 degrees) at 6 MPH (5 knots; 2.6 m/s)
Visibility: 6 or more miles (10+ km)
Ceiling: 30000 feet AGL
Clouds: scattered clouds at 1700 feet AGL
broken clouds at 30000 feet AGL
Weather: no significant weather observed at this time

METAR text: WBKS 190000Z VRB02KT 9999 FEW017 BKN300 27/25 Q1012
Conditions at: WBKS (SANDAKAN/KALIMAN, MY) observed 0000 UTC 19 March 2019
Temperature: 27.0°C (81°F)
Dewpoint: 25.0°C (77°F) [RH = 89%]
Pressure (altimeter): 29.88 inches Hg (1012.0 mb)
Winds: variable direction winds at 2 MPH (2 knots; 1.0 m/s)
Visibility: 6 or more miles (10+ km)
Ceiling: 30000 feet AGL
Clouds: few clouds at 1700 feet AGL
broken clouds at 30000 feet AGL
Weather: no significant weather observed at this time

METAR text: WBKS 182300Z VRB03KT 8000 FEW016 BKN300 26/24 Q1011
Conditions at: WBKS (SANDAKAN/KALIMAN, MY) observed 2300 UTC 18 March 2019
Temperature: 26.0°C (79°F)
Dewpoint: 24.0°C (75°F) [RH = 89%]
Pressure (altimeter): 29.85 inches Hg (1011.0 mb)
Winds: variable direction winds at 3 MPH (3 knots; 1.5 m/s)
Visibility: 5 miles ( 8 km)
Ceiling: 30000 feet AGL
Clouds: few clouds at 1600 feet AGL
broken clouds at 30000 feet AGL
Weather: no significant weather observed at this time

METAR text: WBKS 182200Z 00000KT 9999 FEW016 BKN300 25/24 Q1010
Conditions at: WBKS (SANDAKAN/KALIMAN, MY) observed 2200 UTC 18 March 2019
Temperature: 25.0°C (77°F)
Dewpoint: 24.0°C (75°F) [RH = 94%]
Pressure (altimeter): 29.82 inches Hg (1010.0 mb)
Winds: calm
Visibility: 6 or more miles (10+ km)
Ceiling: 30000 feet AGL
Clouds: few clouds at 1600 feet AGL
broken clouds at 30000 feet AGL
Weather: no significant weather observed at this time

METAR text: WBKS 182100Z VRB02KT 9999 FEW016 BKN300 26/24 Q1009
Conditions at: WBKS (SANDAKAN/KALIMAN, MY) observed 2100 UTC 18 March 2019
Temperature: 26.0°C (79°F)
Dewpoint: 24.0°C (75°F) [RH = 89%]
Pressure (altimeter): 29.79 inches Hg (1009.0 mb)
Winds: variable direction winds at 2 MPH (2 knots; 1.0 m/s)
Visibility: 6 or more miles (10+ km)
Ceiling: 30000 feet AGL
Clouds: few clouds at 1600 feet AGL
broken clouds at 30000 feet AGL
Weather: no significant weather observed at this time

METAR text: WBKS 182000Z 02004KT 340V060 9999 FEW016 BKN300 27/24 Q1009
Conditions at: WBKS (SANDAKAN/KALIMAN, MY) observed 2000 UTC 18 March 2019
Temperature: 27.0°C (81°F)
Dewpoint: 24.0°C (75°F) [RH = 84%]
Pressure (altimeter): 29.79 inches Hg (1009.0 mb)
Winds: from the NNE (20 degrees) at 5 MPH (4 knots; 2.1 m/s)
Visibility: 6 or more miles (10+ km)
Ceiling: 30000 feet AGL
Clouds: few clouds at 1600 feet AGL
broken clouds at 30000 feet AGL
Weather: no significant weather observed at this time

METAR text: WBKS 181900Z 03005KT 340V060 9999 FEW016 BKN290 27/24 Q1009
Conditions at: WBKS (SANDAKAN/KALIMAN, MY) observed 1900 UTC 18 March 2019
Temperature: 27.0°C (81°F)
Dewpoint: 24.0°C (75°F) [RH = 84%]
Pressure (altimeter): 29.79 inches Hg (1009.0 mb)
Winds: from the NNE (30 degrees) at 6 MPH (5 knots; 2.6 m/s)
Visibility: 6 or more miles (10+ km)
Ceiling: 29000 feet AGL
Clouds: few clouds at 1600 feet AGL
broken clouds at 29000 feet AGL
Weather: no significant weather observed at this time

METAR text: WBKS 181800Z 03006KT 360V060 9999 FEW016 BKN290 27/24 Q1010
Conditions at: WBKS (SANDAKAN/KALIMAN, MY) observed 1800 UTC 18 March 2019
Temperature: 27.0°C (81°F)
Dewpoint: 24.0°C (75°F) [RH = 84%]
Pressure (altimeter): 29.82 inches Hg (1010.0 mb)
Winds: from the NNE (30 degrees) at 7 MPH (6 knots; 3.1 m/s)
Visibility: 6 or more miles (10+ km)
Ceiling: 29000 feet AGL
Clouds: few clouds at 1600 feet AGL
broken clouds at 29000 feet AGL
Weather: no significant weather observed at this time

METAR text: WBKS 181700Z 04006KT 010V080 9999 FEW016 BKN290 27/24 Q1010
Conditions at: WBKS (SANDAKAN/KALIMAN, MY) observed 1700 UTC 18 March 2019
Temperature: 27.0°C (81°F)
Dewpoint: 24.0°C (75°F) [RH = 84%]
Pressure (altimeter): 29.82 inches Hg (1010.0 mb)
Winds: from the NE (40 degrees) at 7 MPH (6 knots; 3.1 m/s)
Visibility: 6 or more miles (10+ km)
Ceiling: 29000 feet AGL
Clouds: few clouds at 1600 feet AGL
broken clouds at 29000 feet AGL
Weather: no significant weather observed at this time

METAR text: WBKS 181600Z 03005KT 010V070 9999 FEW016 BKN290 27/24 Q1011
Conditions at: WBKS (SANDAKAN/KALIMAN, MY) observed 1600 UTC 18 March 2019
Temperature: 27.0°C (81°F)
Dewpoint: 24.0°C (75°F) [RH = 84%]
Pressure (altimeter): 29.85 inches Hg (1011.0 mb)
Winds: from the NNE (30 degrees) at 6 MPH (5 knots; 2.6 m/s)
Visibility: 6 or more miles (10+ km)
Ceiling: 29000 feet AGL
Clouds: few clouds at 1600 feet AGL
broken clouds at 29000 feet AGL
Weather: no significant weather observed at this time

METAR text: WBKS 181500Z 03007KT 360V070 9999 FEW016 BKN290 27/24 Q1011
Conditions at: WBKS (SANDAKAN/KALIMAN, MY) observed 1500 UTC 18 March 2019
Temperature: 27.0°C (81°F)
Dewpoint: 24.0°C (75°F) [RH = 84%]
Pressure (altimeter): 29.85 inches Hg (1011.0 mb)
Winds: from the NNE (30 degrees) at 8 MPH (7 knots; 3.6 m/s)
Visibility: 6 or more miles (10+ km)
Ceiling: 29000 feet AGL
Clouds: few clouds at 1600 feet AGL
broken clouds at 29000 feet AGL
Weather: no significant weather observed at this time

METAR text: WBKS 181400Z 04007KT 010V070 9999 FEW015 SCT140 BKN280 27/25 Q1011 RERA
Conditions at: WBKS (SANDAKAN/KALIMAN, MY) observed 1400 UTC 18 March 2019
Temperature: 27.0°C (81°F)
Dewpoint: 25.0°C (77°F) [RH = 89%]
Pressure (altimeter): 29.85 inches Hg (1011.0 mb)
Winds: from the NE (40 degrees) at 8 MPH (7 knots; 3.6 m/s)
Visibility: 6 or more miles (10+ km)
Ceiling: 28000 feet AGL
Clouds: few clouds at 1500 feet AGL
scattered clouds at 14000 feet AGL
broken clouds at 28000 feet AGL
Weather: no significant weather observed at this time

METAR text: WBKS 181300Z 02009KT 340V070 5000 RA FEW015 SCT030 BKN280 27/25 Q1011
Conditions at: WBKS (SANDAKAN/KALIMAN, MY) observed 1300 UTC 18 March 2019
Temperature: 27.0°C (81°F)
Dewpoint: 25.0°C (77°F) [RH = 89%]
Pressure (altimeter): 29.85 inches Hg (1011.0 mb)
Winds: from the NNE (20 degrees) at 10 MPH (9 knots; 4.6 m/s)
Visibility: 3 miles ( 5 km)
Ceiling: 28000 feet AGL
Clouds: few clouds at 1500 feet AGL
scattered clouds at 3000 feet AGL
broken clouds at 28000 feet AGL
Weather: RA  (moderate rain)

METAR text: WBKS 181200Z 03006KT 350V060 9999 FEW017 SCT140 BKN280 28/22 Q1010
Conditions at: WBKS (SANDAKAN/KALIMAN, MY) observed 1200 UTC 18 March 2019
Temperature: 28.0°C (82°F)
Dewpoint: 22.0°C (72°F) [RH = 70%]
Pressure (altimeter): 29.82 inches Hg (1010.0 mb)
Winds: from the NNE (30 degrees) at 7 MPH (6 knots; 3.1 m/s)
Visibility: 6 or more miles (10+ km)
Ceiling: 28000 feet AGL
Clouds: few clouds at 1700 feet AGL
scattered clouds at 14000 feet AGL
broken clouds at 28000 feet AGL
Weather: no significant weather observed at this time

METAR text: WBKS 181100Z 03008KT 9999 FEW017 BKN280 28/23 Q1009
Conditions at: WBKS (SANDAKAN/KALIMAN, MY) observed 1100 UTC 18 March 2019
Temperature: 28.0°C (82°F)
Dewpoint: 23.0°C (73°F) [RH = 74%]
Pressure (altimeter): 29.79 inches Hg (1009.0 mb)
Winds: from the NNE (30 degrees) at 9 MPH (8 knots; 4.1 m/s)
Visibility: 6 or more miles (10+ km)
Ceiling: 28000 feet AGL
Clouds: few clouds at 1700 feet AGL
broken clouds at 28000 feet AGL
Weather: no significant weather observed at this time

METAR text: WBKS 181000Z 01006KT 330V040 9999 FEW017 BKN280 29/25 Q1009
Conditions at: WBKS (SANDAKAN/KALIMAN, MY) observed 1000 UTC 18 March 2019
Temperature: 29.0°C (84°F)
Dewpoint: 25.0°C (77°F) [RH = 79%]
Pressure (altimeter): 29.79 inches Hg (1009.0 mb)
Winds: from the N (10 degrees) at 7 MPH (6 knots; 3.1 m/s)
Visibility: 6 or more miles (10+ km)
Ceiling: 28000 feet AGL
Clouds: few clouds at 1700 feet AGL
broken clouds at 28000 feet AGL
Weather: no significant weather observed at this time

METAR text: WBKS 180900Z 03007KT 350V090 9999 FEW017 BKN280 30/24 Q1008
Conditions at: WBKS (SANDAKAN/KALIMAN, MY) observed 0900 UTC 18 March 2019
Temperature: 30.0°C (86°F)
Dewpoint: 24.0°C (75°F) [RH = 70%]
Pressure (altimeter): 29.76 inches Hg (1008.0 mb)
Winds: from the NNE (30 degrees) at 8 MPH (7 knots; 3.6 m/s)
Visibility: 6 or more miles (10+ km)
Ceiling: 28000 feet AGL
Clouds: few clouds at 1700 feet AGL
broken clouds at 28000 feet AGL
Weather: no significant weather observed at this time

METAR text: WBKS 180800Z 03009KT 350V070 9999 FEW017 SCT140 BKN280 31/23 Q1008
Conditions at: WBKS (SANDAKAN/KALIMAN, MY) observed 0800 UTC 18 March 2019
Temperature: 31.0°C (88°F)
Dewpoint: 23.0°C (73°F) [RH = 63%]
Pressure (altimeter): 29.76 inches Hg (1008.0 mb)
Winds: from the NNE (30 degrees) at 10 MPH (9 knots; 4.6 m/s)
Visibility: 6 or more miles (10+ km)
Ceiling: 28000 feet AGL
Clouds: few clouds at 1700 feet AGL
scattered clouds at 14000 feet AGL
broken clouds at 28000 feet AGL
Weather: no significant weather observed at this time

METAR text: WBKS 180700Z 03007KT 340V080 9999 FEW017 BKN140 31/24 Q1009
Conditions at: WBKS (SANDAKAN/KALIMAN, MY) observed 0700 UTC 18 March 2019
Temperature: 31.0°C (88°F)
Dewpoint: 24.0°C (75°F) [RH = 66%]
Pressure (altimeter): 29.79 inches Hg (1009.0 mb)
Winds: from the NNE (30 degrees) at 8 MPH (7 knots; 3.6 m/s)
Visibility: 6 or more miles (10+ km)
Ceiling: 14000 feet AGL
Clouds: few clouds at 1700 feet AGL
broken clouds at 14000 feet AGL
Weather: no significant weather observed at this time

METAR text: WBKS 180600Z 03009KT 340V090 9999 FEW017 BKN300 32/24 Q1010
Conditions at: WBKS (SANDAKAN/KALIMAN, MY) observed 0600 UTC 18 March 2019
Temperature: 32.0°C (90°F)
Dewpoint: 24.0°C (75°F) [RH = 63%]
Pressure (altimeter): 29.82 inches Hg (1010.0 mb)
Winds: from the NNE (30 degrees) at 10 MPH (9 knots; 4.6 m/s)
Visibility: 6 or more miles (10+ km)
Ceiling: 30000 feet AGL
Clouds: few clouds at 1700 feet AGL
broken clouds at 30000 feet AGL
Weather: no significant weather observed at this time

METAR text: WBKS 180500Z 02008KT 330V070 9999 SCT016 BKN300 32/25 Q1010
Conditions at: WBKS (SANDAKAN/KALIMAN, MY) observed 0500 UTC 18 March 2019
Temperature: 32.0°C (90°F)
Dewpoint: 25.0°C (77°F) [RH = 67%]
Pressure (altimeter): 29.82 inches Hg (1010.0 mb)
Winds: from the NNE (20 degrees) at 9 MPH (8 knots; 4.1 m/s)
Visibility: 6 or more miles (10+ km)
Ceiling: 30000 feet AGL
Clouds: scattered clouds at 1600 feet AGL
broken clouds at 30000 feet AGL
Weather: no significant weather observed at this time

METAR text: WBKS 180400Z 03009KT 350V070 9999 SCT016 BKN300 31/25 Q1011
Conditions at: WBKS (SANDAKAN/KALIMAN, MY) observed 0400 UTC 18 March 2019
Temperature: 31.0°C (88°F)
Dewpoint: 25.0°C (77°F) [RH = 71%]
Pressure (altimeter): 29.85 inches Hg (1011.0 mb)
Winds: from the NNE (30 degrees) at 10 MPH (9 knots; 4.6 m/s)
Visibility: 6 or more miles (10+ km)
Ceiling: 30000 feet AGL
Clouds: scattered clouds at 1600 feet AGL
broken clouds at 30000 feet AGL
Weather: no significant weather observed at this time

METAR text: WBKS 180300Z 04009KT 340V070 9999 SCT016 BKN300 32/25 Q1012
Conditions at: WBKS (SANDAKAN/KALIMAN, MY) observed 0300 UTC 18 March 2019
Temperature: 32.0°C (90°F)
Dewpoint: 25.0°C (77°F) [RH = 67%]
Pressure (altimeter): 29.88 inches Hg (1012.0 mb)
Winds: from the NE (40 degrees) at 10 MPH (9 knots; 4.6 m/s)
Visibility: 6 or more miles (10+ km)
Ceiling: 30000 feet AGL
Clouds: scattered clouds at 1600 feet AGL
broken clouds at 30000 feet AGL
Weather: no significant weather observed at this time

METAR text: WBKS 180200Z 34005KT 290V050 9999 SCT016 BKN300 30/25 Q1012
Conditions at: WBKS (SANDAKAN/KALIMAN, MY) observed 0200 UTC 18 March 2019
Temperature: 30.0°C (86°F)
Dewpoint: 25.0°C (77°F) [RH = 75%]
Pressure (altimeter): 29.88 inches Hg (1012.0 mb)
Winds: from the NNW (340 degrees) at 6 MPH (5 knots; 2.6 m/s)
Visibility: 6 or more miles (10+ km)
Ceiling: 30000 feet AGL
Clouds: scattered clouds at 1600 feet AGL
broken clouds at 30000 feet AGL
Weather: no significant weather observed at this time

METAR text: WBKS 180100Z 29004KT 260V340 9999 SCT016 BKN300 28/25 Q1012
Conditions at: WBKS (SANDAKAN/KALIMAN, MY) observed 0100 UTC 18 March 2019
Temperature: 28.0°C (82°F)
Dewpoint: 25.0°C (77°F) [RH = 84%]
Pressure (altimeter): 29.88 inches Hg (1012.0 mb)
Winds: from the WNW (290 degrees) at 5 MPH (4 knots; 2.1 m/s)
Visibility: 6 or more miles (10+ km)
Ceiling: 30000 feet AGL
Clouds: scattered clouds at 1600 feet AGL
broken clouds at 30000 feet AGL
Weather: no significant weather observed at this time

METAR text: WBKS 180000Z 26006KT 240V300 9999 FEW016 BKN300 27/24 Q1012
Conditions at: WBKS (SANDAKAN/KALIMAN, MY) observed 0000 UTC 18 March 2019
Temperature: 27.0°C (81°F)
Dewpoint: 24.0°C (75°F) [RH = 84%]
Pressure (altimeter): 29.88 inches Hg (1012.0 mb)
Winds: from the W (260 degrees) at 7 MPH (6 knots; 3.1 m/s)
Visibility: 6 or more miles (10+ km)
Ceiling: 30000 feet AGL
Clouds: few clouds at 1600 feet AGL
broken clouds at 30000 feet AGL
Weather: no significant weather observed at this time

METAR text: WBKS 172300Z 25005KT 9999 SCT016 BKN300 25/23 Q1011
Conditions at: WBKS (SANDAKAN/KALIMAN, MY) observed 2300 UTC 17 March 2019
Temperature: 25.0°C (77°F)
Dewpoint: 23.0°C (73°F) [RH = 89%]
Pressure (altimeter): 29.85 inches Hg (1011.0 mb)
Winds: from the WSW (250 degrees) at 6 MPH (5 knots; 2.6 m/s)
Visibility: 6 or more miles (10+ km)
Ceiling: 30000 feet AGL
Clouds: scattered clouds at 1600 feet AGL
broken clouds at 30000 feet AGL
Weather: no significant weather observed at this time

METAR text: WBKS 172200Z 26004KT 9999 FEW016 BKN300 25/23 Q1011
Conditions at: WBKS (SANDAKAN/KALIMAN, MY) observed 2200 UTC 17 March 2019
Temperature: 25.0°C (77°F)
Dewpoint: 23.0°C (73°F) [RH = 89%]
Pressure (altimeter): 29.85 inches Hg (1011.0 mb)
Winds: from the W (260 degrees) at 5 MPH (4 knots; 2.1 m/s)
Visibility: 6 or more miles (10+ km)
Ceiling: 30000 feet AGL
Clouds: few clouds at 1600 feet AGL
broken clouds at 30000 feet AGL
Weather: no significant weather observed at this time

METAR text: WBKS 172100Z VRB03KT 9999 SCT016 BKN300 25/24 Q1011
Conditions at: WBKS (SANDAKAN/KALIMAN, MY) observed 2100 UTC 17 March 2019
Temperature: 25.0°C (77°F)
Dewpoint: 24.0°C (75°F) [RH = 94%]
Pressure (altimeter): 29.85 inches Hg (1011.0 mb)
Winds: variable direction winds at 3 MPH (3 knots; 1.5 m/s)
Visibility: 6 or more miles (10+ km)
Ceiling: 30000 feet AGL
Clouds: scattered clouds at 1600 feet AGL
broken clouds at 30000 feet AGL
Weather: no significant weather observed at this time

METAR text: WBKS 172000Z 25003KT 220V280 9999 FEW016 BKN300 25/24 Q1010
Conditions at: WBKS (SANDAKAN/KALIMAN, MY) observed 2000 UTC 17 March 2019
Temperature: 25.0°C (77°F)
Dewpoint: 24.0°C (75°F) [RH = 94%]
Pressure (altimeter): 29.82 inches Hg (1010.0 mb)
Winds: from the WSW (250 degrees) at 3 MPH (3 knots; 1.5 m/s)
Visibility: 6 or more miles (10+ km)
Ceiling: 30000 feet AGL
Clouds: few clouds at 1600 feet AGL
broken clouds at 30000 feet AGL
Weather: no significant weather observed at this time

METAR text: WBKS 171900Z 26003KT 9999 FEW016 BKN300 26/24 Q1011
Conditions at: WBKS (SANDAKAN/KALIMAN, MY) observed 1900 UTC 17 March 2019
Temperature: 26.0°C (79°F)
Dewpoint: 24.0°C (75°F) [RH = 89%]
Pressure (altimeter): 29.85 inches Hg (1011.0 mb)
Winds: from the W (260 degrees) at 3 MPH (3 knots; 1.5 m/s)
Visibility: 6 or more miles (10+ km)
Ceiling: 30000 feet AGL
Clouds: few clouds at 1600 feet AGL
broken clouds at 30000 feet AGL
Weather: no significant weather observed at this time

Forecast for: WBKS (SANDAKAN/KALIMAN, MY)
Text: TAF WBKS 190500Z 1906/2006 03010KT 9999 SCT017
Forecast period: 0600 UTC 19 March 2019 to 0600 UTC 20 March 2019
Forecast type: FROM: standard forecast or significant change
Winds: from the NNE (30 degrees) at 12 MPH (10 knots; 5.1 m/s)
Visibility: 6 or more miles 10+ km)
Ceiling: at least 12,000 feet AGL
Clouds: scattered clouds at 1700 feet AGL
Weather: no significant weather forecast for this period